createdAt,value
2019-01-21T00:01:52.008Z,67.33
2019-01-21T00:04:22.090Z,56.63
2019-01-21T00:06:52.234Z,57.67
2019-01-21T00:09:22.356Z,61.97
2019-01-21T00:11:52.459Z,63.33
2019-01-21T00:14:22.604Z,60.57
2019-01-21T00:16:52.730Z,58.50
2019-01-21T00:19:22.866Z,61.70
2019-01-21T00:21:52.939Z,63.90
2019-01-21T00:24:24.038Z,61.07
2019-01-21T00:26:53.388Z,59.13
2019-01-21T00:29:23.484Z,58.47
2019-01-21T00:31:53.490Z,65.67
2019-01-21T00:34:23.670Z,60.97
2019-01-21T00:36:53.737Z,60.27
2019-01-21T00:39:23.886Z,63.90
2019-01-21T00:41:56.395Z,64.23
2019-01-21T00:44:25.051Z,56.27
2019-01-21T00:46:54.466Z,59.93
2019-01-21T00:49:24.425Z,60.70
2019-01-21T00:51:54.443Z,54.80
2019-01-21T00:54:24.595Z,61.63
2019-01-21T00:56:54.691Z,64.25
2019-01-21T00:59:24.766Z,55.77
2019-01-21T01:01:54.866Z,58.40
2019-01-21T01:04:24.985Z,59.13
2019-01-21T01:06:55.133Z,60.07
2019-01-21T01:09:25.280Z,64.97
2019-01-21T01:11:55.362Z,64.90
2019-01-21T01:14:25.826Z,60.90
2019-01-21T01:16:55.646Z,60.90
2019-01-21T01:19:25.762Z,60.92
2019-01-21T01:21:55.802Z,60.90
2019-01-21T01:24:25.964Z,56.33
2019-01-21T01:26:58.908Z,64.33
2019-01-21T01:29:28.302Z,61.30
2019-01-21T01:31:57.715Z,58.73
2019-01-21T01:34:27.100Z,60.63
2019-01-21T01:36:57.595Z,57.60
2019-01-21T01:39:26.984Z,61.37
2019-01-21T01:41:56.848Z,63.78
2019-01-21T01:44:26.995Z,61.42
2019-01-21T01:46:56.423Z,64.47
2019-01-21T01:49:25.874Z,64.63
2019-01-21T01:51:55.327Z,60.73
2019-01-21T01:54:24.860Z,57.13
2019-01-21T01:56:54.552Z,61.27
2019-01-21T01:59:23.951Z,61.57
2019-01-21T02:01:53.380Z,60.80
2019-01-21T02:04:22.822Z,58.90
2019-01-21T02:06:52.269Z,53.83
2019-01-21T02:09:22.002Z,54.40
2019-01-21T02:11:51.422Z,61.13
2019-01-21T02:14:20.811Z,55.60
2019-01-21T02:16:50.256Z,57.63
2019-01-21T02:19:22.119Z,55.53
2019-01-21T02:21:52.806Z,60.47
2019-01-21T02:24:23.839Z,56.37
2019-01-21T02:26:56.334Z,55.43
2019-01-21T02:29:34.677Z,54.00
2019-01-21T02:32:22.762Z,59.67
2019-01-21T02:35:00.841Z,55.40
2019-01-21T02:37:33.313Z,56.70
2019-01-21T02:40:15.065Z,55.83
2019-01-21T02:43:02.888Z,55.53
2019-01-21T02:45:56.515Z,54.97
2019-01-21T02:48:31.935Z,54.07
2019-01-21T02:51:08.861Z,57.83
2019-01-21T02:53:46.738Z,57.77
2019-01-21T02:56:24.787Z,56.40
2019-01-21T02:59:02.719Z,50.37
2019-01-21T03:01:37.956Z,56.83
2019-01-21T03:04:30.126Z,55.17
2019-01-21T03:07:11.305Z,48.53
2019-01-21T03:09:49.650Z,53.10
2019-01-21T03:12:22.288Z,55.00
2019-01-21T03:15:21.680Z,55.63
2019-01-21T03:18:26.169Z,54.40
2019-01-21T03:21:18.378Z,48.83
2019-01-21T03:24:02.996Z,55.63
2019-01-21T03:26:35.535Z,53.40
2019-01-21T03:29:10.530Z,54.60
2019-01-21T03:31:50.430Z,54.60
2019-01-21T03:34:44.451Z,52.97
2019-01-21T03:37:35.094Z,56.00
2019-01-21T03:40:22.328Z,55.27
2019-01-21T03:43:02.988Z,53.17
2019-01-21T03:45:47.835Z,51.47
2019-01-21T03:48:21.451Z,49.87
2019-01-21T03:51:03.154Z,54.43
2019-01-21T03:53:51.802Z,53.73
2019-01-21T03:56:24.349Z,52.57
2019-01-21T03:59:02.552Z,49.33
2019-01-21T04:01:35.484Z,53.00
2019-01-21T04:04:22.814Z,55.03
2019-01-21T04:06:55.734Z,53.77
2019-01-21T04:09:34.267Z,54.87
2019-01-21T04:12:09.994Z,56.90
2019-01-21T04:14:57.786Z,51.37
2019-01-21T04:17:57.375Z,53.97
2019-01-21T04:20:46.446Z,55.30
2019-01-21T04:23:33.868Z,49.83
2019-01-21T04:26:14.918Z,50.20
2019-01-21T04:28:50.470Z,49.57
2019-01-21T04:31:28.630Z,56.40
2019-01-21T04:34:07.018Z,50.90
2019-01-21T04:36:56.855Z,52.37
2019-01-21T04:39:43.759Z,52.10
2019-01-21T04:42:33.254Z,54.30
2019-01-21T04:45:14.964Z,57.57
2019-01-21T04:47:47.569Z,56.23
2019-01-21T04:50:46.042Z,52.33
2019-01-21T04:53:18.607Z,52.90
2019-01-21T04:56:05.764Z,57.90
2019-01-21T04:58:40.939Z,51.33
2019-01-21T05:01:30.202Z,57.23
2019-01-21T05:04:17.836Z,54.60
2019-01-21T05:07:05.820Z,50.77
2019-01-21T05:09:47.694Z,52.23
2019-01-21T05:12:35.128Z,52.10
2019-01-21T05:15:30.273Z,54.70
2019-01-21T05:18:21.700Z,54.23
2019-01-21T05:21:13.668Z,54.33
2019-01-21T05:24:02.908Z,54.60
2019-01-21T05:26:44.080Z,53.63
2019-01-21T05:29:32.998Z,51.63
2019-01-21T05:32:23.346Z,52.67
2019-01-21T05:35:15.188Z,57.77
2019-01-21T05:37:50.731Z,55.40
2019-01-21T05:40:25.920Z,48.70
2019-01-21T05:43:23.943Z,52.10
2019-01-21T05:46:14.814Z,54.07
2019-01-21T05:49:02.210Z,55.87
2019-01-21T05:51:46.722Z,54.00
2019-01-21T05:54:28.678Z,58.17
2019-01-21T05:57:10.486Z,53.00
2019-01-21T05:59:51.799Z,51.10
2019-01-21T06:02:42.405Z,54.80
2019-01-21T06:05:37.394Z,52.03
2019-01-21T06:08:15.795Z,49.37
2019-01-21T06:10:54.113Z,48.70
2019-01-21T06:13:38.324Z,54.73
2019-01-21T06:16:31.920Z,52.47
2019-01-21T06:19:06.932Z,52.80
2019-01-21T06:21:42.354Z,53.17
2019-01-21T06:24:18.371Z,53.67
2019-01-21T06:27:05.682Z,52.70
2019-01-21T06:29:43.855Z,51.00
2019-01-21T06:32:18.958Z,48.47
2019-01-21T06:35:12.406Z,50.40
2019-01-21T06:37:50.701Z,55.57
2019-01-21T06:40:37.851Z,48.13
2019-01-21T06:43:27.761Z,51.20
2019-01-21T06:46:00.313Z,47.10
2019-01-21T06:49:06.224Z,55.70
2019-01-21T06:52:10.459Z,50.13
2019-01-21T06:55:02.362Z,45.87
2019-01-21T06:58:00.603Z,47.80
2019-01-21T07:00:57.216Z,44.57
2019-01-21T07:03:44.106Z,48.97
2019-01-21T07:06:39.507Z,46.83
2019-01-21T07:09:17.459Z,47.17
2019-01-21T07:12:06.431Z,49.10
2019-01-21T07:14:56.941Z,48.23
2019-01-21T07:17:49.369Z,53.50
2019-01-21T07:20:40.046Z,48.03
2019-01-21T07:23:35.527Z,50.37
2019-01-21T07:26:20.010Z,47.90
2019-01-21T07:28:58.220Z,49.73
2019-01-21T07:31:38.782Z,47.83
2019-01-21T07:34:35.147Z,46.00
2019-01-21T07:37:22.804Z,47.77
2019-01-21T07:40:01.191Z,47.30
2019-01-21T07:42:49.751Z,48.97
2019-01-21T07:45:41.312Z,45.97
2019-01-21T07:48:23.908Z,47.80
2019-01-21T07:50:56.356Z,50.13
2019-01-21T07:53:46.996Z,43.67
2019-01-21T07:56:52.174Z,45.50
2019-01-21T07:59:44.051Z,52.63
2019-01-21T08:02:31.178Z,45.83
2019-01-21T08:05:15.447Z,52.33
2019-01-21T08:07:54.638Z,50.17
2019-01-21T08:10:46.312Z,49.80
2019-01-21T08:13:33.828Z,53.73
2019-01-21T08:16:21.371Z,50.87
2019-01-21T08:19:10.262Z,50.00
2019-01-21T08:22:02.495Z,51.53
2019-01-21T08:24:52.949Z,50.03
2019-01-21T08:27:36.989Z,54.23
2019-01-21T08:30:30.975Z,48.77
2019-01-21T08:33:22.909Z,49.40
2019-01-21T08:36:11.771Z,50.93
2019-01-21T08:38:56.088Z,48.30
2019-01-21T08:41:34.192Z,48.83
2019-01-21T08:44:28.942Z,53.13
2019-01-21T08:47:18.091Z,50.37
2019-01-21T08:49:56.284Z,48.40
2019-01-21T08:52:34.670Z,51.10
2019-01-21T08:55:31.691Z,46.13
2019-01-21T08:58:12.823Z,57.83
2019-01-21T09:01:00.515Z,52.87
2019-01-21T09:03:53.730Z,47.43
2019-01-21T09:06:44.107Z,45.80
2019-01-21T09:09:41.902Z,53.33
2019-01-21T09:12:20.221Z,51.73
2019-01-21T09:15:19.363Z,52.13
2019-01-21T09:18:09.990Z,54.30
2019-01-21T09:20:54.082Z,54.87
2019-01-21T09:23:44.056Z,53.53
2019-01-21T09:26:25.161Z,52.20
2019-01-21T09:29:21.789Z,54.07
2019-01-21T09:32:03.555Z,57.13
2019-01-21T09:34:38.615Z,54.13
2019-01-21T09:37:23.060Z,53.63
2019-01-21T09:40:13.639Z,51.13
2019-01-21T09:43:04.167Z,53.80
2019-01-21T09:45:53.388Z,49.30
2019-01-21T09:48:21.753Z,49.50
2019-01-21T09:50:51.845Z,50.90
2019-01-21T09:53:21.619Z,51.80
2019-01-21T09:55:52.800Z,49.70
2019-01-21T09:58:24.360Z,51.07
2019-01-21T10:00:54.137Z,53.30
2019-01-21T10:03:24.131Z,49.70
2019-01-21T10:05:56.544Z,52.33
2019-01-21T10:08:31.797Z,50.13
2019-01-21T10:11:26.745Z,55.67
2019-01-21T10:14:12.149Z,48.47
2019-01-21T10:16:50.843Z,48.57
2019-01-21T10:19:32.421Z,49.83
2019-01-21T10:22:20.167Z,44.77
2019-01-21T10:25:10.455Z,43.87
2019-01-21T10:27:45.655Z,45.97
2019-01-21T10:30:34.566Z,41.07
2019-01-21T10:33:29.651Z,45.43
2019-01-21T10:36:11.167Z,43.20
2019-01-21T10:38:49.639Z,43.57
2019-01-21T10:41:34.419Z,47.77
2019-01-21T10:44:12.425Z,42.47
2019-01-21T10:46:56.510Z,42.30
2019-01-21T10:49:44.141Z,40.83
2019-01-21T10:52:19.141Z,39.63
2019-01-21T10:55:08.179Z,42.50
2019-01-21T10:57:43.592Z,40.53
2019-01-21T11:00:32.580Z,38.90
2019-01-21T11:03:10.651Z,38.27
2019-01-21T11:05:45.877Z,41.13
2019-01-21T11:08:45.662Z,37.97
2019-01-21T11:11:30.004Z,43.17
2019-01-21T11:14:31.641Z,39.13
2019-01-21T11:17:09.959Z,37.33
2019-01-21T11:19:51.342Z,38.20
2019-01-21T11:22:26.595Z,36.83
2019-01-21T11:25:16.464Z,35.37
2019-01-21T11:27:48.878Z,38.10
2019-01-21T11:30:36.525Z,37.90
2019-01-21T11:33:23.819Z,34.67
2019-01-21T11:36:21.735Z,37.20
2019-01-21T11:39:06.180Z,36.67
2019-01-21T11:41:38.731Z,39.67
2019-01-21T11:44:13.896Z,31.13
2019-01-21T11:46:46.460Z,32.27
2019-01-21T11:49:35.611Z,30.77
2019-01-21T11:52:22.800Z,33.23
2019-01-21T11:55:03.907Z,33.20
2019-01-21T11:57:51.202Z,32.07
2019-01-21T12:00:46.508Z,33.40
2019-01-21T12:03:23.576Z,29.87
2019-01-21T12:05:55.480Z,32.87
2019-01-21T12:08:44.127Z,31.07
2019-01-21T12:11:16.618Z,34.83
2019-01-21T12:14:11.842Z,32.20
2019-01-21T12:17:10.832Z,35.73
2019-01-21T12:19:51.913Z,32.47
2019-01-21T12:22:27.466Z,32.73
2019-01-21T12:24:59.925Z,31.40
2019-01-21T12:27:38.529Z,32.70
2019-01-21T12:30:16.287Z,31.60
2019-01-21T12:33:00.951Z,31.17
2019-01-21T12:35:36.109Z,28.77
2019-01-21T12:38:28.223Z,31.07
2019-01-21T12:41:06.524Z,30.73
2019-01-21T12:43:59.858Z,32.27
2019-01-21T12:46:35.160Z,29.57
2019-01-21T12:49:25.690Z,31.57
2019-01-21T12:52:03.924Z,29.70
2019-01-21T12:54:36.421Z,28.67
2019-01-21T12:57:25.295Z,29.33
2019-01-21T13:00:12.638Z,29.70
2019-01-21T13:02:57.030Z,28.73
2019-01-21T13:05:44.595Z,31.60
2019-01-21T13:08:31.698Z,31.57
2019-01-21T13:11:07.781Z,32.30
2019-01-21T13:14:06.211Z,31.50
2019-01-21T13:16:35.841Z,35.67
2019-01-21T13:19:32.005Z,29.20
2019-01-21T13:22:16.314Z,30.13
2019-01-21T13:25:16.164Z,31.80
2019-01-21T13:27:57.592Z,30.07
2019-01-21T13:30:39.128Z,32.53
2019-01-21T13:33:32.444Z,33.67
2019-01-21T13:36:14.304Z,32.13
2019-01-21T13:38:55.449Z,30.27
2019-01-21T13:41:39.782Z,32.30
2019-01-21T13:44:20.869Z,31.47
2019-01-21T13:47:16.161Z,31.07
2019-01-21T13:50:00.255Z,34.23
2019-01-21T13:52:50.885Z,30.97
2019-01-21T13:55:32.343Z,31.97
2019-01-21T13:58:36.294Z,31.60
2019-01-21T14:01:08.783Z,32.67
2019-01-21T14:03:59.257Z,31.10
2019-01-21T14:06:34.389Z,33.03
2019-01-21T14:09:26.461Z,32.80
2019-01-21T14:12:11.230Z,36.20
2019-01-21T14:14:49.603Z,34.97
2019-01-21T14:17:49.216Z,36.63
2019-01-21T14:20:36.520Z,35.10
2019-01-21T14:23:11.553Z,34.00
2019-01-21T14:26:01.847Z,34.30
2019-01-21T14:28:52.524Z,34.10
2019-01-21T14:31:36.857Z,32.27
2019-01-21T14:34:18.462Z,34.33
2019-01-21T14:36:59.189Z,35.07
2019-01-21T14:39:48.094Z,34.53
2019-01-21T14:42:32.440Z,53.00
2019-01-21T14:45:19.864Z,38.13
2019-01-21T14:47:55.259Z,66.70
2019-01-21T14:50:50.267Z,39.53
2019-01-21T14:53:24.197Z,37.10
2019-01-21T14:56:08.435Z,38.90
2019-01-21T14:58:40.971Z,39.07
2019-01-21T15:01:16.448Z,42.40
2019-01-21T15:03:57.438Z,38.60
2019-01-21T15:06:38.834Z,40.20
2019-01-21T15:09:19.614Z,37.47
2019-01-21T15:12:09.563Z,36.23
2019-01-21T15:14:44.749Z,34.93
2019-01-21T15:17:21.504Z,37.37
2019-01-21T15:19:51.733Z,38.47
2019-01-21T15:22:29.949Z,37.33
2019-01-21T15:25:09.079Z,38.50
2019-01-21T15:27:57.057Z,38.10
2019-01-21T15:30:29.594Z,39.43
2019-01-21T15:33:17.444Z,40.17
2019-01-21T15:36:01.770Z,38.60
2019-01-21T15:38:37.047Z,39.53
2019-01-21T15:41:27.034Z,40.30
2019-01-21T15:43:59.577Z,40.10
2019-01-21T15:46:48.677Z,37.97
2019-01-21T15:49:27.111Z,38.13
2019-01-21T15:52:05.795Z,39.43
2019-01-21T15:54:56.448Z,37.97
2019-01-21T15:57:45.866Z,41.60
2019-01-21T16:00:39.407Z,38.70
2019-01-21T16:03:14.846Z,38.40
2019-01-21T16:05:55.748Z,40.03
2019-01-21T16:08:28.258Z,36.70
2019-01-21T16:11:12.655Z,37.57
2019-01-21T16:13:45.266Z,34.67
2019-01-21T16:16:29.911Z,38.73
2019-01-21T16:19:02.558Z,37.13
2019-01-21T16:21:59.164Z,34.17
2019-01-21T16:24:37.219Z,38.08
2019-01-21T16:27:27.742Z,34.80
2019-01-21T16:30:00.264Z,35.27
2019-01-21T16:32:32.300Z,35.00
2019-01-21T16:35:28.627Z,34.00
2019-01-21T16:38:01.212Z,34.33
2019-01-21T16:40:39.573Z,35.53
2019-01-21T16:43:09.108Z,39.10
2019-01-21T16:45:38.466Z,35.73
2019-01-21T16:48:08.012Z,36.43
2019-01-21T16:50:38.537Z,36.23
2019-01-21T16:53:08.003Z,38.97
2019-01-21T16:55:37.467Z,35.87
2019-01-21T16:58:06.993Z,33.77
2019-01-21T17:00:36.432Z,33.27
2019-01-21T17:03:06.049Z,35.57
2019-01-21T17:05:35.500Z,37.87
2019-01-21T17:08:05.090Z,39.97
2019-01-21T17:10:39.114Z,34.73
2019-01-21T17:13:05.630Z,37.87
2019-01-21T17:15:35.091Z,38.17
2019-01-21T17:18:07.222Z,40.07
2019-01-21T17:20:36.681Z,43.20
2019-01-21T17:23:06.117Z,40.07
2019-01-21T17:25:35.581Z,36.93
2019-01-21T17:28:05.090Z,34.63
2019-01-21T17:30:34.544Z,38.93
2019-01-21T17:33:04.061Z,35.17
2019-01-21T17:35:33.506Z,33.53
2019-01-21T17:38:04.246Z,32.50
2019-01-21T17:40:34.838Z,33.60
2019-01-21T17:43:04.342Z,34.73
2019-01-21T17:45:33.791Z,31.83
2019-01-21T17:48:03.329Z,31.87
2019-01-21T17:50:34.305Z,33.00
2019-01-21T17:53:03.915Z,32.30
2019-01-21T17:55:33.366Z,34.83
2019-01-21T17:58:02.798Z,30.70
2019-01-21T18:00:32.255Z,33.50
2019-01-21T18:03:01.698Z,32.53
2019-01-21T18:05:31.168Z,31.73
2019-01-21T18:08:00.622Z,34.80
2019-01-21T18:10:31.436Z,36.57
2019-01-21T18:13:00.929Z,30.53
2019-01-21T18:15:30.385Z,32.30
2019-01-21T18:17:59.831Z,33.27
2019-01-21T18:20:29.278Z,32.57
2019-01-21T18:22:58.723Z,30.97
2019-01-21T18:25:29.209Z,30.97
2019-01-21T18:27:58.664Z,33.60
2019-01-21T18:30:29.243Z,31.77
2019-01-21T18:32:58.707Z,32.83
2019-01-21T18:35:28.190Z,31.80
2019-01-21T18:37:57.647Z,33.37
2019-01-21T18:40:28.669Z,37.00
2019-01-21T18:43:00.176Z,32.67
2019-01-21T18:45:31.023Z,35.77
2019-01-21T18:48:00.477Z,36.73
2019-01-21T18:50:29.986Z,35.90
2019-01-21T18:52:59.448Z,36.73
2019-01-21T18:55:28.888Z,40.37
2019-01-21T18:57:58.333Z,36.00
2019-01-21T19:00:28.776Z,38.00
2019-01-21T19:02:59.570Z,41.83
2019-01-21T19:05:29.021Z,36.87
2019-01-21T19:08:00.888Z,39.33
2019-01-21T19:10:31.961Z,41.23
2019-01-21T19:13:01.421Z,41.70
2019-01-21T19:15:31.391Z,44.37
2019-01-21T19:18:00.946Z,46.57
2019-01-21T19:20:32.042Z,40.67
2019-01-21T19:23:01.494Z,40.33
2019-01-21T19:25:30.953Z,48.37
2019-01-21T19:28:00.408Z,41.10
2019-01-21T19:30:31.470Z,41.97
2019-01-21T19:33:02.012Z,42.93
2019-01-21T19:35:35.290Z,42.37
2019-01-21T19:38:06.161Z,47.27
2019-01-21T19:40:37.427Z,44.33
2019-01-21T19:43:06.988Z,42.50
2019-01-21T19:45:36.434Z,45.90
2019-01-21T19:48:07.360Z,43.80
2019-01-21T19:50:38.352Z,43.67
2019-01-21T19:53:07.852Z,42.23
2019-01-21T19:55:41.699Z,43.47
2019-01-21T19:58:15.354Z,39.93
2019-01-21T20:00:45.012Z,40.77
2019-01-21T20:03:14.487Z,38.57
2019-01-21T20:05:43.989Z,40.20
2019-01-21T20:08:18.336Z,41.57
2019-01-21T20:10:47.804Z,42.13
2019-01-21T20:13:18.763Z,40.17
2019-01-21T20:15:48.201Z,39.27
2019-01-21T20:18:17.718Z,45.70
2019-01-21T20:20:48.010Z,36.07
2019-01-21T20:23:17.447Z,41.20
2019-01-21T20:25:48.129Z,38.20
2019-01-21T20:28:19.295Z,36.43
2019-01-21T20:30:48.748Z,37.13
2019-01-21T20:33:20.888Z,35.83
2019-01-21T20:35:50.340Z,33.07
2019-01-21T20:38:19.789Z,34.90
2019-01-21T20:40:49.269Z,34.67
2019-01-21T20:43:21.382Z,38.43
2019-01-21T20:45:52.274Z,36.63
2019-01-21T20:48:21.715Z,39.77
2019-01-21T20:50:51.230Z,39.53
2019-01-21T20:53:28.045Z,37.03
2019-01-21T20:55:56.023Z,43.93
2019-01-21T20:58:25.489Z,47.03
2019-01-21T21:00:57.666Z,40.27
2019-01-21T21:03:34.141Z,45.47
2019-01-21T21:06:03.760Z,44.83
2019-01-21T21:08:33.300Z,49.57
2019-01-21T21:11:02.774Z,45.53
2019-01-21T21:13:32.567Z,47.60
2019-01-21T21:16:02.179Z,52.47
2019-01-21T21:18:31.637Z,54.77
2019-01-21T21:21:01.090Z,50.50
2019-01-21T21:23:33.726Z,53.23
2019-01-21T21:26:03.204Z,57.13
2019-01-21T21:28:33.493Z,56.17
2019-01-21T21:31:02.939Z,50.10
2019-01-21T21:33:32.407Z,55.50
2019-01-21T21:36:01.838Z,59.50
2019-01-21T21:38:31.288Z,62.97
2019-01-21T21:41:00.800Z,56.37
2019-01-21T21:43:30.264Z,55.17
2019-01-21T21:45:59.766Z,53.77
2019-01-21T21:48:31.826Z,67.70
2019-01-21T21:51:00.959Z,61.80
2019-01-21T21:53:30.488Z,61.47
2019-01-21T21:56:00.176Z,58.47
2019-01-21T21:58:30.379Z,67.90
2019-01-21T22:01:00.400Z,66.00
2019-01-21T22:03:30.651Z,54.93
2019-01-21T22:06:00.689Z,51.93
2019-01-21T22:08:30.840Z,59.53
2019-01-21T22:11:01.039Z,59.63
2019-01-21T22:13:31.088Z,67.15
2019-01-21T22:16:01.188Z,69.17
2019-01-21T22:18:31.281Z,73.60
2019-01-21T22:21:02.714Z,56.60
2019-01-21T22:23:32.846Z,114.62
2019-01-21T22:26:03.054Z,65.25
2019-01-21T22:28:33.118Z,130.90
2019-01-21T22:31:03.116Z,68.00
2019-01-21T22:33:34.864Z,96.90
2019-01-21T22:36:04.377Z,59.83
2019-01-21T22:38:33.798Z,66.43
2019-01-21T22:41:03.674Z,79.17
2019-01-21T22:43:33.765Z,65.87
2019-01-21T22:46:04.047Z,83.03
2019-01-21T22:48:34.021Z,67.53
2019-01-21T22:51:04.186Z,62.20
2019-01-21T22:53:34.248Z,62.23
2019-01-21T22:56:05.372Z,56.73
2019-01-21T22:58:34.821Z,61.10
2019-01-21T23:01:07.820Z,62.87
2019-01-21T23:03:37.241Z,59.90
2019-01-21T23:06:06.881Z,66.20
2019-01-21T23:08:36.319Z,67.67
2019-01-21T23:11:05.756Z,63.47
2019-01-21T23:13:35.188Z,57.10
2019-01-21T23:16:05.560Z,60.47
2019-01-21T23:18:35.458Z,68.30
2019-01-21T23:21:05.642Z,60.07
2019-01-21T23:23:35.744Z,62.67
2019-01-21T23:26:05.884Z,64.40
2019-01-21T23:28:36.066Z,70.30
2019-01-21T23:31:06.918Z,59.60
2019-01-21T23:33:36.344Z,58.20
2019-01-21T23:36:06.293Z,67.07
2019-01-21T23:38:36.416Z,60.73
2019-01-21T23:41:06.554Z,54.73
2019-01-21T23:43:36.654Z,60.60
2019-01-21T23:46:06.824Z,63.33
2019-01-21T23:48:36.834Z,57.43
2019-01-21T23:51:07.095Z,57.75
2019-01-21T23:53:37.095Z,60.60
2019-01-21T23:56:07.328Z,66.50
2019-01-21T23:58:37.327Z,69.37
